Artania — C6CY5 — position and weather

sailwx.info

Track history (hours):
 
Tides and Currents Weather Stations Pressure Air Temp Water Temp Dewpoint Dewpoint Depression Visibility Wind Speed Wind Dir Waves Ship Positions

Artania

Last reported at 2018-Jun-25 15:00 UTC. Time now 2018-Jun-25 15:25 UTC.
Position N 54°57' E 014°43'.

Length 230 m; draft 8 m.

Type: Ship. MMSI: 311000608.

Date/timePositionNaut miles runAvg speedWind from/ knotsBaromVisibWave heightAir tempDewpointWater temp
2018-Jun-25 15:00N 54°57' E 014°43'715.0
2018-Jun-25 14:30N 55°04' E 014°38'3 5.8
2018-Jun-25 14:00N 55°06' E 014°41'0 0.1
2018-Jun-25 13:27N 55°06' E 014°41'0 0.0
2018-Jun-25 13:00N 55°06' E 014°41'0 0.0
2018-Jun-25 12:27N 55°06' E 014°41'0 0.0
2018-Jun-25 12:00N 55°06' E 014°41'0 0.0
2018-Jun-25 11:21N 55°06' E 014°41'0 0.0
2018-Jun-25 11:00N 55°06' E 014°41'0 0.0
2018-Jun-25 10:30N 55°06' E 014°41'0 0.0
2018-Jun-25 09:57N 55°06' E 014°41'0 0.0
2018-Jun-25 09:27N 55°06' E 014°41'0 0.2
2018-Jun-25 09:00N 55°06' E 014°41'2 3.1
2018-Jun-25 08:30N 55°05' E 014°39'4 7.5
2018-Jun-25 08:00N 55°03' E 014°33'713.4
2018-Jun-25 07:30N 54°59' E 014°24'612.9
2018-Jun-25 07:00N 54°58' E 014°13'1018.0
2018-Jun-25 06:27N 54°56' E 013°56'920.0
2018-Jun-25 06:01N 54°54' E 013°41'1019.6
2018-Jun-25 05:29N 54°52' E 013°23'919.5
2018-Jun-25 05:00N 54°49' E 013°08'1019.4
2018-Jun-25 04:29N 54°46' E 012°51'918.9
2018-Jun-25 04:01N 54°42' E 012°37'1019.4
2018-Jun-25 03:30N 54°37' E 012°23'918.8
2018-Jun-25 03:01N 54°29' E 012°15'1617.4
2018-Jun-25 02:05N 54°24' E 011°48'219.5
2018-Jun-25 02:00N 54°25' E 011°46'1019.7
2018-Jun-25 01:31N 54°29' E 011°30'1019.8
2018-Jun-25 01:01N 54°33' E 011°15'1019.7
2018-Jun-25 00:31N 54°35' E 010°59'1019.6
2018-Jun-25 00:00N 54°34' E 010°42'1019.3
2018-Jun-24 23:30N 54°31' E 010°26'913.6
2018-Jun-24 22:52N 54°26' E 010°14'6 9.5
2018-Jun-24 22:12N 54°20' E 010°10'1 0.1
2018-Jun-24 07:54N 54°20' E 010°09'0 0.0
2018-Jun-24 07:30N 54°20' E 010°09'0 0.0
2018-Jun-24 07:00N 54°20' E 010°09'0 0.0
2018-Jun-24 06:30N 54°20' E 010°09'0 0.0
2018-Jun-24 06:00N 54°20' E 010°09'0 0.0
2018-Jun-24 05:30N 54°20' E 010°09'0 0.0
2018-Jun-24 05:00N 54°20' E 010°09'0 0.0
2018-Jun-24 04:21N 54°20' E 010°09'0 0.0
2018-Jun-24 04:00N 54°20' E 010°09'0 0.0
2018-Jun-24 03:30N 54°20' E 010°09'0 0.0
2018-Jun-24 03:00N 54°20' E 010°09'0 0.0
2018-Jun-24 02:30N 54°20' E 010°09'0 0.0
2018-Jun-24 02:00N 54°20' E 010°09'0 0.0
2018-Jun-24 01:30N 54°20' E 010°09'0 0.0
2018-Jun-24 01:00N 54°20' E 010°09'0 0.0
2018-Jun-24 00:30N 54°20' E 010°09'0 0.0
2018-Jun-24 00:00N 54°20' E 010°09'0 0.0
2018-Jun-23 23:30N 54°20' E 010°09'0 0.0
2018-Jun-23 23:00N 54°20' E 010°09'0 0.0
2018-Jun-23 22:30N 54°20' E 010°09'0 0.0
2018-Jun-23 22:00N 54°20' E 010°09'0 0.0
2018-Jun-23 21:21N 54°20' E 010°09'0 0.0
2018-Jun-23 21:00N 54°20' E 010°09'0 0.0
2018-Jun-23 20:30N 54°20' E 010°09'0 0.0
2018-Jun-23 20:00N 54°20' E 010°09'0 0.0
2018-Jun-23 19:24N 54°20' E 010°09'0 0.0
2018-Jun-23 19:00N 54°20' E 010°09'0 0.0
2018-Jun-23 18:30N 54°20' E 010°09'0 0.0
2018-Jun-23 18:00N 54°20' E 010°09'0 0.0
2018-Jun-23 17:30N 54°20' E 010°09'1 2.1
2018-Jun-23 17:00N 54°20' E 010°10'13 1.0
2018-Jun-23 04:06N 54°34' E 010°10'1 9.8
2018-Jun-23 04:00N 54°34' E 010°12'5 9.8
2018-Jun-23 03:30N 54°34' E 010°20'5 9.7
2018-Jun-23 03:00N 54°35' E 010°28'510.1
2018-Jun-23 02:30N 54°35' E 010°37'510.4
2018-Jun-23 02:00N 54°35' E 010°46'5 9.8
2018-Jun-23 01:30N 54°35' E 010°55'510.0
2018-Jun-23 01:00N 54°36' E 011°03'5 9.6
2018-Jun-23 00:30N 54°36' E 011°11'5 9.7
2018-Jun-23 00:00N 54°34' E 011°19'5 9.8
2018-Jun-22 23:30N 54°32' E 011°27'5 9.6
2018-Jun-22 23:00N 54°30' E 011°34'510.9
2018-Jun-22 22:30N 54°27' E 011°43'510.4
2018-Jun-22 22:00N 54°26' E 011°51'10 9.5
2018-Jun-22 21:00N 54°27' E 012°08'4 8.8
2018-Jun-22 20:30N 54°31' E 012°12'510.3
2018-Jun-22 20:00N 54°36' E 012°14'54 8.6
2018-Jun-22 13:46N 54°59' E 013°38'6 7.8
2018-Jun-22 12:58N 55°01' E 013°48'5 7.5
2018-Jun-22 12:19N 55°03' E 013°56'5 8.8
2018-Jun-22 11:48N 55°03' E 014°04'310.6
2018-Jun-22 11:30N 55°06' E 014°08'5 9.5
2018-Jun-22 11:00N 55°06' E 014°16'5 9.6
2018-Jun-22 10:31N 55°04' E 014°24'5 9.6
2018-Jun-22 10:00N 55°01' E 014°30'5 9.6
2018-Jun-22 09:30N 54°58' E 014°37'5 9.4
2018-Jun-22 09:01N 54°56' E 014°44'815.2
2018-Jun-22 08:30N 54°54' E 014°57'714.9
2018-Jun-22 08:00N 54°54' E 015°10'815.0
2018-Jun-22 07:29N 54°56' E 015°23'715.4
2018-Jun-22 07:00N 54°58' E 015°35'350 9.1
2018-Jun-20 16:45N 59°28' E 022°26'416.0
2018-Jun-20 16:30N 59°30' E 022°32'815.8
2018-Jun-20 16:00N 59°32' E 022°47'815.8
2018-Jun-20 15:30N 59°33' E 023°03'815.8
2018-Jun-20 15:01N 59°33' E 023°18'815.8
2018-Jun-20 14:30N 59°32' E 023°34'915.8
2018-Jun-20 13:57N 59°31' E 023°51'715.5
2018-Jun-20 13:29N 59°31' E 024°05'815.4
2018-Jun-20 12:58N 59°30' E 024°21'715.0
2018-Jun-20 12:30N 59°30' E 024°34'511.0
2018-Jun-20 12:00N 59°31' E 024°45'4 7.4
2018-Jun-20 11:31N 59°27' E 024°46'0 0.3
2018-Jun-20 11:00N 59°27' E 024°46'0 0.0
2018-Jun-20 10:29N 59°27' E 024°46'0 0.0
2018-Jun-20 09:59N 59°27' E 024°46'0 0.0
2018-Jun-20 09:30N 59°27' E 024°46'0 0.0
2018-Jun-20 09:00N 59°27' E 024°46'0 0.0
2018-Jun-20 08:30N 59°27' E 024°46'0 0.0
2018-Jun-20 08:00N 59°27' E 024°46'0 0.0
2018-Jun-20 07:30N 59°27' E 024°46'0 0.0
2018-Jun-20 06:56N 59°27' E 024°46'0 0.0
2018-Jun-20 06:29N 59°27' E 024°46'0 0.0
2018-Jun-20 05:58N 59°27' E 024°46'0 0.0
2018-Jun-20 05:27N 59°27' E 024°46'0 0.0
2018-Jun-20 05:00N 59°27' E 024°46'0 0.0
2018-Jun-20 04:30N 59°27' E 024°46'3 5.6
2018-Jun-20 04:00N 59°30' E 024°45'714.7
2018-Jun-20 03:30N 59°37' E 024°40'815.8
2018-Jun-20 03:01N 59°43' E 024°48'917.4
2018-Jun-20 02:30N 59°50' E 024°58'917.3
2018-Jun-20 02:00N 59°52' E 025°15'917.7
2018-Jun-20 01:30N 59°53' E 025°33'917.8
2018-Jun-20 01:01N 59°55' E 025°50'918.7
2018-Jun-20 00:30N 59°58' E 026°08'1018.6
2018-Jun-19 23:58N 60°00' E 026°27'818.4
2018-Jun-19 23:30N 60°01' E 026°44'1018.7
2018-Jun-19 23:00N 59°59' E 027°03'918.9
2018-Jun-19 22:30N 60°04' E 027°19'1118.9
2018-Jun-19 21:56N 60°10' E 027°37'817.5
2018-Jun-19 21:30N 60°11' E 027°52'918.7
2018-Jun-19 21:01N 60°09' E 028°10'917.9
2018-Jun-19 20:30N 60°05' E 028°26'917.8
2018-Jun-19 20:00N 60°03' E 028°43'918.1
2018-Jun-19 19:31N 60°03' E 029°01'1018.6
2018-Jun-19 18:58N 60°02' E 029°21'7 9.0
2018-Jun-19 18:11N 60°01' E 029°35'210.9
2018-Jun-19 18:00N 59°60' E 029°39'510.8
2018-Jun-19 17:30N 59°58' E 029°49'611.9
2018-Jun-19 17:00N 59°55' E 029°60'510.0
2018-Jun-19 16:30N 59°57' E 030°09'1 2.4
2018-Jun-19 15:58N 59°57' E 030°12'0 0.0
2018-Jun-19 15:28N 59°57' E 030°12'0 0.0
2018-Jun-19 14:58N 59°57' E 030°12'0 0.0
2018-Jun-19 14:28N 59°57' E 030°12'0 0.0
2018-Jun-19 13:58N 59°57' E 030°12'0 0.0
2018-Jun-19 13:28N 59°57' E 030°12'0 0.0
2018-Jun-19 12:58N 59°57' E 030°12'0 0.0
2018-Jun-19 12:28N 59°57' E 030°12'0 0.0
2018-Jun-19 11:58N 59°57' E 030°12'0 0.0
2018-Jun-19 11:28N 59°57' E 030°12'0 0.0
2018-Jun-19 10:58N 59°57' E 030°12'0 0.0
2018-Jun-19 10:28N 59°57' E 030°12'0 0.0
2018-Jun-19 09:58N 59°57' E 030°12'0 0.0
2018-Jun-19 09:28N 59°57' E 030°12'0 0.0
2018-Jun-19 08:58N 59°57' E 030°12'0 0.0
2018-Jun-19 08:28N 59°57' E 030°12'0 0.0
2018-Jun-19 07:58N 59°57' E 030°12'0 0.0
2018-Jun-19 07:28N 59°57' E 030°12'0 0.0
2018-Jun-19 06:58N 59°57' E 030°12'0 0.0
2018-Jun-19 06:28N 59°57' E 030°12'0 0.0
2018-Jun-19 05:58N 59°57' E 030°12'0 0.0
2018-Jun-19 05:28N 59°57' E 030°12'0 0.0
2018-Jun-18 22:16N 59°57' E 030°12'0 0.0
2018-Jun-18 21:58N 59°57' E 030°12'0 0.0
2018-Jun-18 21:28N 59°57' E 030°12'0 0.0
2018-Jun-18 20:58N 59°57' E 030°12'0 0.0
2018-Jun-18 20:28N 59°57' E 030°12'0 0.0
2018-Jun-18 19:58N 59°57' E 030°12'0 0.0
2018-Jun-18 19:28N 59°57' E 030°12'0 0.0
2018-Jun-18 18:58N 59°57' E 030°12'0 0.0
2018-Jun-18 18:25N 59°57' E 030°12'0 0.0
2018-Jun-18 17:55N 59°57' E 030°12'0 0.0
2018-Jun-18 17:28N 59°57' E 030°12'0 0.0
2018-Jun-18 16:58N 59°57' E 030°12'0 0.0
2018-Jun-18 16:28N 59°57' E 030°12'0 0.0
2018-Jun-18 15:58N 59°57' E 030°12'0 0.0
2018-Jun-18 15:28N 59°57' E 030°12'0 0.0
2018-Jun-18 14:58N 59°57' E 030°12'0 0.0
2018-Jun-18 14:22N 59°57' E 030°12'0 0.0
2018-Jun-18 13:58N 59°57' E 030°12'0 0.0
2018-Jun-18 13:28N 59°57' E 030°12'0 0.0
2018-Jun-18 12:58N 59°57' E 030°12'0 0.0
2018-Jun-18 12:28N 59°57' E 030°12'0 0.0
2018-Jun-18 11:58N 59°57' E 030°12'0 0.0
2018-Jun-18 11:25N 59°57' E 030°12'0 0.0
2018-Jun-18 10:58N 59°57' E 030°12'0 0.0
2018-Jun-18 10:28N 59°57' E 030°12'0 0.0
2018-Jun-18 09:58N 59°57' E 030°12'0 0.0
2018-Jun-18 09:28N 59°57' E 030°12'0 0.0
2018-Jun-18 08:58N 59°57' E 030°12'0 0.0
2018-Jun-18 08:28N 59°57' E 030°12'0 0.0
2018-Jun-18 07:58N 59°57' E 030°12'0 0.0
2018-Jun-18 07:28N 59°57' E 030°12'0 0.0
2018-Jun-18 06:55N 59°57' E 030°12'0 0.0
2018-Jun-18 06:28N 59°57' E 030°12'0 0.0
2018-Jun-18 05:58N 59°57' E 030°12'0 0.0
2018-Jun-18 05:28N 59°57' E 030°12'0 0.0
2018-Jun-18 04:58N 59°57' E 030°12'0 0.2
2018-Jun-18 04:30N 59°57' E 030°11'2 4.8
2018-Jun-18 04:00N 59°57' E 030°07'5 9.1
2018-Jun-18 03:30N 59°56' E 029°58'510.8
2018-Jun-18 03:00N 59°58' E 029°48'510.4
2018-Jun-18 02:30N 60°00' E 029°38'611.6
2018-Jun-18 01:57N 60°02' E 029°26'613.6
2018-Jun-18 01:30N 60°02' E 029°14'814.8
2018-Jun-18 00:57N 60°02' E 028°57'715.1
2018-Jun-18 00:30N 60°02' E 028°44'815.1
2018-Jun-18 00:00N 60°03' E 028°29'714.8
2018-Jun-17 23:30N 60°07' E 028°16'815.3
2018-Jun-17 23:00N 60°09' E 028°02'815.2
2018-Jun-17 22:31N 60°10' E 027°47'815.4
2018-Jun-17 22:00N 60°07' E 027°33'815.5
2018-Jun-17 21:30N 60°03' E 027°20'815.3
2018-Jun-17 21:00N 59°59' E 027°07'715.0
2018-Jun-17 20:30N 59°59' E 026°52'815.3
2018-Jun-17 20:00N 59°60' E 026°36'815.7
2018-Jun-17 19:30N 59°57' E 026°21'815.6
2018-Jun-17 19:00N 59°55' E 026°06'815.5
2018-Jun-17 18:30N 59°53' E 025°51'815.7
2018-Jun-17 18:00N 59°51' E 025°36'816.3
2018-Jun-17 17:30N 59°50' E 025°20'816.0
2018-Jun-17 17:00N 59°48' E 025°05'815.6
2018-Jun-17 16:30N 59°55' E 024°57'714.7
2018-Jun-17 16:00N 60°02' E 024°54'712.5
2018-Jun-17 15:29N 60°09' E 024°55'0 0.0
2018-Jun-17 14:58N 60°09' E 024°55'0 0.0
2018-Jun-17 14:28N 60°09' E 024°55'0 0.0
2018-Jun-17 13:58N 60°09' E 024°55'0 0.0
2018-Jun-17 13:28N 60°09' E 024°55'0 0.0
2018-Jun-17 13:00N 60°09' E 024°55'0 0.0
2018-Jun-17 12:30N 60°09' E 024°55'0 0.0
2018-Jun-17 11:58N 60°09' E 024°55'0 0.0
2018-Jun-17 11:28N 60°09' E 024°55'0 0.0
2018-Jun-17 10:58N 60°09' E 024°55'0 0.0
2018-Jun-17 10:28N 60°09' E 024°55'0 0.0
2018-Jun-17 09:58N 60°09' E 024°55'0 0.2
2018-Jun-17 09:31N 60°09' E 024°55'2 4.5
2018-Jun-17 09:00N 60°07' E 024°54'815.5
2018-Jun-17 08:30N 59°59' E 024°57'713.6
2018-Jun-17 08:00N 59°52' E 024°55'713.3
2018-Jun-17 07:30N 59°47' E 024°48'714.6
2018-Jun-17 07:00N 59°45' E 024°35'714.7
2018-Jun-17 06:30N 59°42' E 024°21'714.7
2018-Jun-17 06:01N 59°40' E 024°07'714.8
2018-Jun-17 05:30N 59°38' E 023°53'714.8
2018-Jun-17 05:01N 59°36' E 023°39'714.9
2018-Jun-17 04:30N 59°34' E 023°25'714.9
2018-Jun-17 04:00N 59°32' E 023°11'715.0
2018-Jun-17 03:31N 59°30' E 022°56'815.5
2018-Jun-17 03:00N 59°27' E 022°42'815.4
2018-Jun-17 02:30N 59°24' E 022°29'815.3
2018-Jun-17 02:00N 59°21' E 022°15'815.0
2018-Jun-17 01:30N 59°20' E 022°00'815.3
2018-Jun-17 01:00N 59°21' E 021°45'815.7
2018-Jun-17 00:30N 59°20' E 021°30'1116.3
2018-Jun-16 23:50N 59°20' E 021°08'516.3
2018-Jun-16 23:31N 59°19' E 020°58'816.2
2018-Jun-16 23:00N 59°18' E 020°42'816.2
2018-Jun-16 22:30N 59°18' E 020°26'816.1
2018-Jun-16 22:00N 59°17' E 020°11'816.4
2018-Jun-16 21:30N 59°16' E 019°54'816.5
2018-Jun-16 21:00N 59°15' E 019°38'916.4
2018-Jun-16 20:29N 59°15' E 019°22'817.0
2018-Jun-16 20:00N 59°14' E 019°06'611.9
2018-Jun-16 19:30N 59°16' E 018°55'511.0
2018-Jun-16 19:00N 59°20' E 018°47'611.6
2018-Jun-16 18:30N 59°22' E 018°37'611.9
2018-Jun-16 18:00N 59°26' E 018°28'3 5.5
2018-Jun-16 17:30N 59°24' E 018°27'3 6.1
2018-Jun-16 17:00N 59°22' E 018°22'511.0
2018-Jun-16 16:30N 59°20' E 018°12'3 6.9
2018-Jun-16 16:00N 59°19' E 018°05'1 1.1
2018-Jun-16 15:28N 59°19' E 018°06'0 0.0
2018-Jun-16 14:58N 59°19' E 018°06'0 0.0
2018-Jun-16 14:28N 59°19' E 018°06'0 0.0
2018-Jun-16 13:58N 59°19' E 018°06'0 0.0
2018-Jun-16 13:28N 59°19' E 018°06'0 0.0
2018-Jun-16 12:58N 59°19' E 018°06'0 0.0
2018-Jun-16 12:28N 59°19' E 018°06'0 0.0
2018-Jun-16 11:58N 59°19' E 018°06'0 0.0
2018-Jun-16 11:28N 59°19' E 018°06'0 0.0
2018-Jun-16 10:58N 59°19' E 018°06'0 0.0
2018-Jun-16 10:28N 59°19' E 018°06'0 0.0
2018-Jun-16 09:58N 59°19' E 018°06'0 0.0
2018-Jun-16 09:28N 59°19' E 018°06'0 0.0
2018-Jun-16 08:58N 59°19' E 018°06'0 0.0
2018-Jun-16 08:28N 59°19' E 018°06'0 0.0
2018-Jun-16 07:58N 59°19' E 018°06'0 0.0
2018-Jun-16 07:28N 59°19' E 018°06'0 0.0
2018-Jun-16 06:58N 59°19' E 018°06'0 0.0
2018-Jun-16 06:28N 59°19' E 018°06'0 0.0
2018-Jun-16 05:58N 59°19' E 018°06'1 2.5
2018-Jun-16 05:30N 59°19' E 018°08'510.8
2018-Jun-16 05:01N 59°22' E 018°17'5 9.9
2018-Jun-16 04:30N 59°22' E 018°27'510.0
2018-Jun-16 04:01N 59°26' E 018°23'611.3
2018-Jun-16 03:31N 59°23' E 018°33'611.8
2018-Jun-16 03:01N 59°22' E 018°44'713.5
2018-Jun-16 02:31N 59°17' E 018°54'611.5
2018-Jun-16 02:00N 59°14' E 019°03'4 8.9
2018-Jun-16 01:31N 59°12' E 019°10'5 9.7
2018-Jun-16 00:59N 59°07' E 019°08'810.4
2018-Jun-16 00:11N 58°59' E 019°03'310.8
2018-Jun-15 23:56N 58°56' E 019°01'3310.3
2018-Jun-15 20:45N 58°25' E 018°43'1010.3
2018-Jun-15 19:44N 58°15' E 018°37'410.5
2018-Jun-15 19:24N 58°12' E 018°35'410.2
2018-Jun-15 19:00N 58°08' E 018°33'510.2
2018-Jun-15 18:30N 58°03' E 018°30'510.7
2018-Jun-15 18:00N 57°58' E 018°27'510.7
2018-Jun-15 17:30N 57°53' E 018°24'510.8
2018-Jun-15 17:00N 57°48' E 018°21'510.8
2018-Jun-15 16:30N 57°42' E 018°18'5 9.2
2018-Jun-15 16:00N 57°38' E 018°16'  
Track history (hours):
 
Tides and Currents Weather Stations Pressure Air Temp Water Temp Dewpoint Dewpoint Depression Visibility Wind Speed Wind Dir Waves Ship Positions

Artania

Last reported at 2018-Jun-25 15:00 UTC. Time now 2018-Jun-25 15:25 UTC.
Position N 54°57' E 014°43'.

Length 230 m; draft 8 m.

Type: Ship. MMSI: 311000608.

Date/timePositionNaut miles runAvg speedWind from/ knotsBaromVisibWave heightAir tempDewpointWater temp
2018-Jun-25 15:00N 54°57' E 014°43'715.0
2018-Jun-25 14:30N 55°04' E 014°38'3 5.8
2018-Jun-25 14:00N 55°06' E 014°41'0 0.1
2018-Jun-25 13:27N 55°06' E 014°41'0 0.0
2018-Jun-25 13:00N 55°06' E 014°41'0 0.0
2018-Jun-25 12:27N 55°06' E 014°41'0 0.0
2018-Jun-25 12:00N 55°06' E 014°41'0 0.0
2018-Jun-25 11:21N 55°06' E 014°41'0 0.0
2018-Jun-25 11:00N 55°06' E 014°41'0 0.0
2018-Jun-25 10:30N 55°06' E 014°41'0 0.0
2018-Jun-25 09:57N 55°06' E 014°41'0 0.0
2018-Jun-25 09:27N 55°06' E 014°41'0 0.2
2018-Jun-25 09:00N 55°06' E 014°41'2 3.1
2018-Jun-25 08:30N 55°05' E 014°39'4 7.5
2018-Jun-25 08:00N 55°03' E 014°33'713.4
2018-Jun-25 07:30N 54°59' E 014°24'612.9
2018-Jun-25 07:00N 54°58' E 014°13'1018.0
2018-Jun-25 06:27N 54°56' E 013°56'920.0
2018-Jun-25 06:01N 54°54' E 013°41'1019.6
2018-Jun-25 05:29N 54°52' E 013°23'919.5
2018-Jun-25 05:00N 54°49' E 013°08'1019.4
2018-Jun-25 04:29N 54°46' E 012°51'918.9
2018-Jun-25 04:01N 54°42' E 012°37'1019.4
2018-Jun-25 03:30N 54°37' E 012°23'918.8
2018-Jun-25 03:01N 54°29' E 012°15'1617.4
2018-Jun-25 02:05N 54°24' E 011°48'219.5
2018-Jun-25 02:00N 54°25' E 011°46'1019.7
2018-Jun-25 01:31N 54°29' E 011°30'1019.8
2018-Jun-25 01:01N 54°33' E 011°15'1019.7
2018-Jun-25 00:31N 54°35' E 010°59'1019.6
2018-Jun-25 00:00N 54°34' E 010°42'1019.3
2018-Jun-24 23:30N 54°31' E 010°26'913.6
2018-Jun-24 22:52N 54°26' E 010°14'6 9.5
2018-Jun-24 22:12N 54°20' E 010°10'1 0.1
2018-Jun-24 07:54N 54°20' E 010°09'0 0.0
2018-Jun-24 07:30N 54°20' E 010°09'0 0.0
2018-Jun-24 07:00N 54°20' E 010°09'0 0.0
2018-Jun-24 06:30N 54°20' E 010°09'0 0.0
2018-Jun-24 06:00N 54°20' E 010°09'0 0.0
2018-Jun-24 05:30N 54°20' E 010°09'0 0.0
2018-Jun-24 05:00N 54°20' E 010°09'0 0.0
2018-Jun-24 04:21N 54°20' E 010°09'0 0.0
2018-Jun-24 04:00N 54°20' E 010°09'0 0.0
2018-Jun-24 03:30N 54°20' E 010°09'0 0.0
2018-Jun-24 03:00N 54°20' E 010°09'0 0.0
2018-Jun-24 02:30N 54°20' E 010°09'0 0.0
2018-Jun-24 02:00N 54°20' E 010°09'0 0.0
2018-Jun-24 01:30N 54°20' E 010°09'0 0.0
2018-Jun-24 01:00N 54°20' E 010°09'0 0.0
2018-Jun-24 00:30N 54°20' E 010°09'0 0.0
2018-Jun-24 00:00N 54°20' E 010°09'0 0.0
2018-Jun-23 23:30N 54°20' E 010°09'0 0.0
2018-Jun-23 23:00N 54°20' E 010°09'0 0.0
2018-Jun-23 22:30N 54°20' E 010°09'0 0.0
2018-Jun-23 22:00N 54°20' E 010°09'0 0.0
2018-Jun-23 21:21N 54°20' E 010°09'0 0.0
2018-Jun-23 21:00N 54°20' E 010°09'0 0.0
2018-Jun-23 20:30N 54°20' E 010°09'0 0.0
2018-Jun-23 20:00N 54°20' E 010°09'0 0.0
2018-Jun-23 19:24N 54°20' E 010°09'0 0.0
2018-Jun-23 19:00N 54°20' E 010°09'0 0.0
2018-Jun-23 18:30N 54°20' E 010°09'0 0.0
2018-Jun-23 18:00N 54°20' E 010°09'0 0.0
2018-Jun-23 17:30N 54°20' E 010°09'1 2.1
2018-Jun-23 17:00N 54°20' E 010°10'13 1.0
2018-Jun-23 04:06N 54°34' E 010°10'1 9.8
2018-Jun-23 04:00N 54°34' E 010°12'5 9.8
2018-Jun-23 03:30N 54°34' E 010°20'5 9.7
2018-Jun-23 03:00N 54°35' E 010°28'510.1
2018-Jun-23 02:30N 54°35' E 010°37'510.4
2018-Jun-23 02:00N 54°35' E 010°46'5 9.8
2018-Jun-23 01:30N 54°35' E 010°55'510.0
2018-Jun-23 01:00N 54°36' E 011°03'5 9.6
2018-Jun-23 00:30N 54°36' E 011°11'5 9.7
2018-Jun-23 00:00N 54°34' E 011°19'5 9.8
2018-Jun-22 23:30N 54°32' E 011°27'5 9.6
2018-Jun-22 23:00N 54°30' E 011°34'510.9
2018-Jun-22 22:30N 54°27' E 011°43'510.4
2018-Jun-22 22:00N 54°26' E 011°51'10 9.5
2018-Jun-22 21:00N 54°27' E 012°08'4 8.8
2018-Jun-22 20:30N 54°31' E 012°12'510.3
2018-Jun-22 20:00N 54°36' E 012°14'54 8.6
2018-Jun-22 13:46N 54°59' E 013°38'6 7.8
2018-Jun-22 12:58N 55°01' E 013°48'5 7.5
2018-Jun-22 12:19N 55°03' E 013°56'5 8.8
2018-Jun-22 11:48N 55°03' E 014°04'310.6
2018-Jun-22 11:30N 55°06' E 014°08'5 9.5
2018-Jun-22 11:00N 55°06' E 014°16'5 9.6
2018-Jun-22 10:31N 55°04' E 014°24'5 9.6
2018-Jun-22 10:00N 55°01' E 014°30'5 9.6
2018-Jun-22 09:30N 54°58' E 014°37'5 9.4
2018-Jun-22 09:01N 54°56' E 014°44'815.2
2018-Jun-22 08:30N 54°54' E 014°57'714.9
2018-Jun-22 08:00N 54°54' E 015°10'815.0
2018-Jun-22 07:29N 54°56' E 015°23'715.4
2018-Jun-22 07:00N 54°58' E 015°35'350 9.1
2018-Jun-20 16:45N 59°28' E 022°26'416.0
2018-Jun-20 16:30N 59°30' E 022°32'815.8
2018-Jun-20 16:00N 59°32' E 022°47'815.8
2018-Jun-20 15:30N 59°33' E 023°03'815.8
2018-Jun-20 15:01N 59°33' E 023°18'815.8
2018-Jun-20 14:30N 59°32' E 023°34'915.8
2018-Jun-20 13:57N 59°31' E 023°51'715.5
2018-Jun-20 13:29N 59°31' E 024°05'815.4
2018-Jun-20 12:58N 59°30' E 024°21'715.0
2018-Jun-20 12:30N 59°30' E 024°34'511.0
2018-Jun-20 12:00N 59°31' E 024°45'4 7.4
2018-Jun-20 11:31N 59°27' E 024°46'0 0.3
2018-Jun-20 11:00N 59°27' E 024°46'0 0.0
2018-Jun-20 10:29N 59°27' E 024°46'0 0.0
2018-Jun-20 09:59N 59°27' E 024°46'0 0.0
2018-Jun-20 09:30N 59°27' E 024°46'0 0.0
2018-Jun-20 09:00N 59°27' E 024°46'0 0.0
2018-Jun-20 08:30N 59°27' E 024°46'0 0.0
2018-Jun-20 08:00N 59°27' E 024°46'0 0.0
2018-Jun-20 07:30N 59°27' E 024°46'0 0.0
2018-Jun-20 06:56N 59°27' E 024°46'0 0.0
2018-Jun-20 06:29N 59°27' E 024°46'0 0.0
2018-Jun-20 05:58N 59°27' E 024°46'0 0.0
2018-Jun-20 05:27N 59°27' E 024°46'0 0.0
2018-Jun-20 05:00N 59°27' E 024°46'0 0.0
2018-Jun-20 04:30N 59°27' E 024°46'3 5.6
2018-Jun-20 04:00N 59°30' E 024°45'714.7
2018-Jun-20 03:30N 59°37' E 024°40'815.8
2018-Jun-20 03:01N 59°43' E 024°48'917.4
2018-Jun-20 02:30N 59°50' E 024°58'917.3
2018-Jun-20 02:00N 59°52' E 025°15'917.7
2018-Jun-20 01:30N 59°53' E 025°33'917.8
2018-Jun-20 01:01N 59°55' E 025°50'918.7
2018-Jun-20 00:30N 59°58' E 026°08'1018.6
2018-Jun-19 23:58N 60°00' E 026°27'818.4
2018-Jun-19 23:30N 60°01' E 026°44'1018.7
2018-Jun-19 23:00N 59°59' E 027°03'918.9
2018-Jun-19 22:30N 60°04' E 027°19'1118.9
2018-Jun-19 21:56N 60°10' E 027°37'817.5
2018-Jun-19 21:30N 60°11' E 027°52'918.7
2018-Jun-19 21:01N 60°09' E 028°10'917.9
2018-Jun-19 20:30N 60°05' E 028°26'917.8
2018-Jun-19 20:00N 60°03' E 028°43'918.1
2018-Jun-19 19:31N 60°03' E 029°01'1018.6
2018-Jun-19 18:58N 60°02' E 029°21'7 9.0
2018-Jun-19 18:11N 60°01' E 029°35'210.9
2018-Jun-19 18:00N 59°60' E 029°39'510.8
2018-Jun-19 17:30N 59°58' E 029°49'611.9
2018-Jun-19 17:00N 59°55' E 029°60'510.0
2018-Jun-19 16:30N 59°57' E 030°09'1 2.4
2018-Jun-19 15:58N 59°57' E 030°12'0 0.0
2018-Jun-19 15:28N 59°57' E 030°12'0 0.0
2018-Jun-19 14:58N 59°57' E 030°12'0 0.0
2018-Jun-19 14:28N 59°57' E 030°12'0 0.0
2018-Jun-19 13:58N 59°57' E 030°12'0 0.0
2018-Jun-19 13:28N 59°57' E 030°12'0 0.0
2018-Jun-19 12:58N 59°57' E 030°12'0 0.0
2018-Jun-19 12:28N 59°57' E 030°12'0 0.0
2018-Jun-19 11:58N 59°57' E 030°12'0 0.0
2018-Jun-19 11:28N 59°57' E 030°12'0 0.0
2018-Jun-19 10:58N 59°57' E 030°12'0 0.0
2018-Jun-19 10:28N 59°57' E 030°12'0 0.0
2018-Jun-19 09:58N 59°57' E 030°12'0 0.0
2018-Jun-19 09:28N 59°57' E 030°12'0 0.0
2018-Jun-19 08:58N 59°57' E 030°12'0 0.0
2018-Jun-19 08:28N 59°57' E 030°12'0 0.0
2018-Jun-19 07:58N 59°57' E 030°12'0 0.0
2018-Jun-19 07:28N 59°57' E 030°12'0 0.0
2018-Jun-19 06:58N 59°57' E 030°12'0 0.0
2018-Jun-19 06:28N 59°57' E 030°12'0 0.0
2018-Jun-19 05:58N 59°57' E 030°12'0 0.0
2018-Jun-19 05:28N 59°57' E 030°12'0 0.0
2018-Jun-18 22:16N 59°57' E 030°12'0 0.0
2018-Jun-18 21:58N 59°57' E 030°12'0 0.0
2018-Jun-18 21:28N 59°57' E 030°12'0 0.0
2018-Jun-18 20:58N 59°57' E 030°12'0 0.0
2018-Jun-18 20:28N 59°57' E 030°12'0 0.0
2018-Jun-18 19:58N 59°57' E 030°12'0 0.0
2018-Jun-18 19:28N 59°57' E 030°12'0 0.0
2018-Jun-18 18:58N 59°57' E 030°12'0 0.0
2018-Jun-18 18:25N 59°57' E 030°12'0 0.0
2018-Jun-18 17:55N 59°57' E 030°12'0 0.0
2018-Jun-18 17:28N 59°57' E 030°12'0 0.0
2018-Jun-18 16:58N 59°57' E 030°12'0 0.0
2018-Jun-18 16:28N 59°57' E 030°12'0 0.0
2018-Jun-18 15:58N 59°57' E 030°12'0 0.0
2018-Jun-18 15:28N 59°57' E 030°12'0 0.0
2018-Jun-18 14:58N 59°57' E 030°12'0 0.0
2018-Jun-18 14:22N 59°57' E 030°12'0 0.0
2018-Jun-18 13:58N 59°57' E 030°12'0 0.0
2018-Jun-18 13:28N 59°57' E 030°12'0 0.0
2018-Jun-18 12:58N 59°57' E 030°12'0 0.0
2018-Jun-18 12:28N 59°57' E 030°12'0 0.0
2018-Jun-18 11:58N 59°57' E 030°12'0 0.0
2018-Jun-18 11:25N 59°57' E 030°12'0 0.0
2018-Jun-18 10:58N 59°57' E 030°12'0 0.0
2018-Jun-18 10:28N 59°57' E 030°12'0 0.0
2018-Jun-18 09:58N 59°57' E 030°12'0 0.0
2018-Jun-18 09:28N 59°57' E 030°12'0 0.0
2018-Jun-18 08:58N 59°57' E 030°12'0 0.0
2018-Jun-18 08:28N 59°57' E 030°12'0 0.0
2018-Jun-18 07:58N 59°57' E 030°12'0 0.0
2018-Jun-18 07:28N 59°57' E 030°12'0 0.0
2018-Jun-18 06:55N 59°57' E 030°12'0 0.0
2018-Jun-18 06:28N 59°57' E 030°12'0 0.0
2018-Jun-18 05:58N 59°57' E 030°12'0 0.0
2018-Jun-18 05:28N 59°57' E 030°12'0 0.0
2018-Jun-18 04:58N 59°57' E 030°12'0 0.2
2018-Jun-18 04:30N 59°57' E 030°11'2 4.8
2018-Jun-18 04:00N 59°57' E 030°07'5 9.1
2018-Jun-18 03:30N 59°56' E 029°58'510.8
2018-Jun-18 03:00N 59°58' E 029°48'510.4
2018-Jun-18 02:30N 60°00' E 029°38'611.6
2018-Jun-18 01:57N 60°02' E 029°26'613.6
2018-Jun-18 01:30N 60°02' E 029°14'814.8
2018-Jun-18 00:57N 60°02' E 028°57'715.1
2018-Jun-18 00:30N 60°02' E 028°44'815.1
2018-Jun-18 00:00N 60°03' E 028°29'714.8
2018-Jun-17 23:30N 60°07' E 028°16'815.3
2018-Jun-17 23:00N 60°09' E 028°02'815.2
2018-Jun-17 22:31N 60°10' E 027°47'815.4
2018-Jun-17 22:00N 60°07' E 027°33'815.5
2018-Jun-17 21:30N 60°03' E 027°20'815.3
2018-Jun-17 21:00N 59°59' E 027°07'715.0
2018-Jun-17 20:30N 59°59' E 026°52'815.3
2018-Jun-17 20:00N 59°60' E 026°36'815.7
2018-Jun-17 19:30N 59°57' E 026°21'815.6
2018-Jun-17 19:00N 59°55' E 026°06'815.5
2018-Jun-17 18:30N 59°53' E 025°51'815.7
2018-Jun-17 18:00N 59°51' E 025°36'816.3
2018-Jun-17 17:30N 59°50' E 025°20'816.0
2018-Jun-17 17:00N 59°48' E 025°05'815.6
2018-Jun-17 16:30N 59°55' E 024°57'714.7
2018-Jun-17 16:00N 60°02' E 024°54'712.5
2018-Jun-17 15:29N 60°09' E 024°55'0 0.0
2018-Jun-17 14:58N 60°09' E 024°55'0 0.0
2018-Jun-17 14:28N 60°09' E 024°55'0 0.0
2018-Jun-17 13:58N 60°09' E 024°55'0 0.0
2018-Jun-17 13:28N 60°09' E 024°55'0 0.0
2018-Jun-17 13:00N 60°09' E 024°55'0 0.0
2018-Jun-17 12:30N 60°09' E 024°55'0 0.0
2018-Jun-17 11:58N 60°09' E 024°55'0 0.0
2018-Jun-17 11:28N 60°09' E 024°55'0 0.0
2018-Jun-17 10:58N 60°09' E 024°55'0 0.0
2018-Jun-17 10:28N 60°09' E 024°55'0 0.0
2018-Jun-17 09:58N 60°09' E 024°55'0 0.2
2018-Jun-17 09:31N 60°09' E 024°55'2 4.5
2018-Jun-17 09:00N 60°07' E 024°54'815.5
2018-Jun-17 08:30N 59°59' E 024°57'713.6
2018-Jun-17 08:00N 59°52' E 024°55'713.3
2018-Jun-17 07:30N 59°47' E 024°48'714.6
2018-Jun-17 07:00N 59°45' E 024°35'714.7
2018-Jun-17 06:30N 59°42' E 024°21'714.7
2018-Jun-17 06:01N 59°40' E 024°07'714.8
2018-Jun-17 05:30N 59°38' E 023°53'714.8
2018-Jun-17 05:01N 59°36' E 023°39'714.9
2018-Jun-17 04:30N 59°34' E 023°25'714.9
2018-Jun-17 04:00N 59°32' E 023°11'715.0
2018-Jun-17 03:31N 59°30' E 022°56'815.5
2018-Jun-17 03:00N 59°27' E 022°42'815.4
2018-Jun-17 02:30N 59°24' E 022°29'815.3
2018-Jun-17 02:00N 59°21' E 022°15'815.0
2018-Jun-17 01:30N 59°20' E 022°00'815.3
2018-Jun-17 01:00N 59°21' E 021°45'815.7
2018-Jun-17 00:30N 59°20' E 021°30'1116.3
2018-Jun-16 23:50N 59°20' E 021°08'516.3
2018-Jun-16 23:31N 59°19' E 020°58'816.2
2018-Jun-16 23:00N 59°18' E 020°42'816.2
2018-Jun-16 22:30N 59°18' E 020°26'816.1
2018-Jun-16 22:00N 59°17' E 020°11'816.4
2018-Jun-16 21:30N 59°16' E 019°54'816.5
2018-Jun-16 21:00N 59°15' E 019°38'916.4
2018-Jun-16 20:29N 59°15' E 019°22'817.0
2018-Jun-16 20:00N 59°14' E 019°06'611.9
2018-Jun-16 19:30N 59°16' E 018°55'511.0
2018-Jun-16 19:00N 59°20' E 018°47'611.6
2018-Jun-16 18:30N 59°22' E 018°37'611.9
2018-Jun-16 18:00N 59°26' E 018°28'3 5.5
2018-Jun-16 17:30N 59°24' E 018°27'3 6.1
2018-Jun-16 17:00N 59°22' E 018°22'511.0
2018-Jun-16 16:30N 59°20' E 018°12'3 6.9
2018-Jun-16 16:00N 59°19' E 018°05'1 1.1
2018-Jun-16 15:28N 59°19' E 018°06'0 0.0
2018-Jun-16 14:58N 59°19' E 018°06'0 0.0
2018-Jun-16 14:28N 59°19' E 018°06'0 0.0
2018-Jun-16 13:58N 59°19' E 018°06'0 0.0
2018-Jun-16 13:28N 59°19' E 018°06'0 0.0
2018-Jun-16 12:58N 59°19' E 018°06'0 0.0
2018-Jun-16 12:28N 59°19' E 018°06'0 0.0
2018-Jun-16 11:58N 59°19' E 018°06'0 0.0
2018-Jun-16 11:28N 59°19' E 018°06'0 0.0
2018-Jun-16 10:58N 59°19' E 018°06'0 0.0
2018-Jun-16 10:28N 59°19' E 018°06'0 0.0
2018-Jun-16 09:58N 59°19' E 018°06'0 0.0
2018-Jun-16 09:28N 59°19' E 018°06'0 0.0
2018-Jun-16 08:58N 59°19' E 018°06'0 0.0
2018-Jun-16 08:28N 59°19' E 018°06'0 0.0
2018-Jun-16 07:58N 59°19' E 018°06'0 0.0
2018-Jun-16 07:28N 59°19' E 018°06'0 0.0
2018-Jun-16 06:58N 59°19' E 018°06'0 0.0
2018-Jun-16 06:28N 59°19' E 018°06'0 0.0
2018-Jun-16 05:58N 59°19' E 018°06'1 2.5
2018-Jun-16 05:30N 59°19' E 018°08'510.8
2018-Jun-16 05:01N 59°22' E 018°17'5 9.9
2018-Jun-16 04:30N 59°22' E 018°27'510.0
2018-Jun-16 04:01N 59°26' E 018°23'611.3
2018-Jun-16 03:31N 59°23' E 018°33'611.8
2018-Jun-16 03:01N 59°22' E 018°44'713.5
2018-Jun-16 02:31N 59°17' E 018°54'611.5
2018-Jun-16 02:00N 59°14' E 019°03'4 8.9
2018-Jun-16 01:31N 59°12' E 019°10'5 9.7
2018-Jun-16 00:59N 59°07' E 019°08'810.4
2018-Jun-16 00:11N 58°59' E 019°03'310.8
2018-Jun-15 23:56N 58°56' E 019°01'3310.3
2018-Jun-15 20:45N 58°25' E 018°43'1010.3
2018-Jun-15 19:44N 58°15' E 018°37'410.5
2018-Jun-15 19:24N 58°12' E 018°35'410.2
2018-Jun-15 19:00N 58°08' E 018°33'510.2
2018-Jun-15 18:30N 58°03' E 018°30'510.7
2018-Jun-15 18:00N 57°58' E 018°27'510.7
2018-Jun-15 17:30N 57°53' E 018°24'510.8
2018-Jun-15 17:00N 57°48' E 018°21'510.8
2018-Jun-15 16:30N 57°42' E 018°18'5 9.2
2018-Jun-15 16:00N 57°38' E 018°16'  

Dump ship's entire track history